createdAt,value
2022-09-04T00:01:38.769Z,4.97
2022-09-04T00:04:32.012Z,4.50
2022-09-04T00:06:42.810Z,4.20
2022-09-04T00:11:15.268Z,4.80
2022-09-04T00:13:29.030Z,4.45
2022-09-04T00:15:36.521Z,4.85
2022-09-04T00:18:03.002Z,5.55
2022-09-04T00:20:14.233Z,5.38
2022-09-04T00:22:33.759Z,4.97
2022-09-04T00:24:40.088Z,4.47
2022-09-04T00:26:41.957Z,5.15
2022-09-04T00:29:01.267Z,4.45
2022-09-04T00:31:29.157Z,4.75
2022-09-04T00:33:49.890Z,4.55
2022-09-04T00:35:57.905Z,4.82
2022-09-04T00:38:21.501Z,5.75
2022-09-04T00:40:37.747Z,5.10
2022-09-04T00:43:10.758Z,5.05
2022-09-04T00:45:42.044Z,5.45
2022-09-04T00:48:31.989Z,4.95
2022-09-04T00:51:15.188Z,5.22
2022-09-04T00:53:36.332Z,5.40
2022-09-04T00:55:54.165Z,5.35
2022-09-04T00:58:33.354Z,5.05
2022-09-04T01:00:36.561Z,6.50
2022-09-04T01:02:47.181Z,5.30
2022-09-04T01:05:19.835Z,5.75
2022-09-04T01:07:48.327Z,5.78
2022-09-04T01:10:31.108Z,5.97
2022-09-04T01:12:40.579Z,6.32
2022-09-04T01:14:48.645Z,6.18
2022-09-04T01:17:06.331Z,6.25
2022-09-04T01:19:41.640Z,5.97
2022-09-04T01:21:46.171Z,6.85
2022-09-04T01:24:15.333Z,5.90
2022-09-04T01:26:35.559Z,6.50
2022-09-04T01:28:53.333Z,6.30
2022-09-04T01:31:08.202Z,6.18
2022-09-04T01:33:27.760Z,6.05
2022-09-04T01:35:44.589Z,6.22
2022-09-04T01:37:58.620Z,6.03
2022-09-04T01:40:23.828Z,6.05
2022-09-04T01:42:56.375Z,6.30
2022-09-04T01:47:40.225Z,5.95
2022-09-04T01:50:01.943Z,6.00
2022-09-04T01:52:21.828Z,5.68
2022-09-04T01:54:50.376Z,6.00
2022-09-04T01:57:03.246Z,6.18
2022-09-04T01:59:27.203Z,5.75
2022-09-04T02:01:48.670Z,5.85
2022-09-04T02:03:54.465Z,6.13
2022-09-04T02:06:37.238Z,5.47
2022-09-04T02:09:02.948Z,6.80
2022-09-04T02:11:15.288Z,6.50
2022-09-04T02:13:29.498Z,6.50
2022-09-04T02:16:10.601Z,6.22
2022-09-04T02:19:01.247Z,5.70
2022-09-04T02:21:13.636Z,5.95
2022-09-04T02:23:26.725Z,6.45
2022-09-04T02:25:56.388Z,6.90
2022-09-04T02:28:45.820Z,6.75
2022-09-04T02:31:02.687Z,6.10
2022-09-04T02:33:19.370Z,7.15
2022-09-04T02:35:37.020Z,7.78
2022-09-04T02:38:27.878Z,7.35
2022-09-04T02:40:54.073Z,7.57
2022-09-04T02:43:10.931Z,7.53
2022-09-04T02:45:45.921Z,9.00
2022-09-04T02:47:55.754Z,9.18
2022-09-04T02:50:30.776Z,9.07
2022-09-04T02:52:56.655Z,8.60
2022-09-04T02:55:14.461Z,9.15
2022-09-04T02:57:40.777Z,9.93
2022-09-04T03:00:26.041Z,10.32
2022-09-04T03:02:33.792Z,12.82
2022-09-04T03:04:59.159Z,11.70
2022-09-04T03:07:10.020Z,12.13
2022-09-04T03:09:47.101Z,12.52
2022-09-04T03:12:00.866Z,11.95
2022-09-04T03:14:05.340Z,13.43
2022-09-04T03:16:15.808Z,13.10
2022-09-04T03:18:54.846Z,12.93
2022-09-04T03:21:12.479Z,13.07
2022-09-04T03:23:32.859Z,13.80
2022-09-04T03:26:11.291Z,12.40
2022-09-04T03:28:24.936Z,13.55
2022-09-04T03:30:28.846Z,14.48
2022-09-04T03:32:33.500Z,14.68
2022-09-04T03:35:17.621Z,14.15
2022-09-04T03:37:46.968Z,14.68
2022-09-04T03:40:20.598Z,13.90
2022-09-04T03:42:25.354Z,14.82
2022-09-04T03:44:52.372Z,15.30
2022-09-04T03:46:54.190Z,14.63
2022-09-04T03:49:09.543Z,14.48
2022-09-04T03:51:25.684Z,15.23
2022-09-04T03:53:49.984Z,15.80
2022-09-04T03:56:26.600Z,15.57
2022-09-04T03:58:59.857Z,14.43
2022-09-04T04:01:25.368Z,15.52
2022-09-04T04:03:40.179Z,15.15
2022-09-04T04:06:16.028Z,15.65
2022-09-04T04:08:56.753Z,16.02
2022-09-04T04:11:26.352Z,14.73
2022-09-04T04:14:05.244Z,15.68
2022-09-04T04:16:24.475Z,15.52
2022-09-04T04:18:39.231Z,16.88
2022-09-04T04:21:13.138Z,16.73
2022-09-04T04:23:24.885Z,16.00
2022-09-04T04:25:48.870Z,16.45
2022-09-04T04:28:36.013Z,16.50
2022-09-04T04:30:52.664Z,16.90
2022-09-04T04:33:20.961Z,17.25
2022-09-04T04:36:17.759Z,17.55
2022-09-04T04:38:30.726Z,17.20
2022-09-04T04:40:45.380Z,17.70
2022-09-04T04:43:12.967Z,17.52
2022-09-04T04:45:55.520Z,16.88
2022-09-04T04:48:31.875Z,17.67
2022-09-04T04:51:05.371Z,16.00
2022-09-04T04:53:25.004Z,16.08
2022-09-04T04:55:35.173Z,18.05
2022-09-04T04:57:54.366Z,15.68
2022-09-04T05:00:08.240Z,16.50
2022-09-04T05:02:31.194Z,16.90
2022-09-04T05:04:58.255Z,16.00
2022-09-04T05:07:34.740Z,15.90
2022-09-04T05:09:51.497Z,16.65
2022-09-04T05:12:18.090Z,16.13
2022-09-04T05:15:02.053Z,16.50
2022-09-04T05:17:18.367Z,15.10
2022-09-04T05:19:45.190Z,16.50
2022-09-04T05:22:04.350Z,15.68
2022-09-04T05:24:34.274Z,15.73
2022-09-04T05:26:35.936Z,15.98
2022-09-04T05:28:50.119Z,15.02
2022-09-04T05:31:14.122Z,15.00
2022-09-04T05:33:29.221Z,14.73
2022-09-04T05:35:38.269Z,13.85
2022-09-04T05:37:45.236Z,14.65
2022-09-04T05:40:23.557Z,13.60
2022-09-04T05:42:34.040Z,13.18
2022-09-04T05:44:59.982Z,13.93
2022-09-04T05:47:11.689Z,13.07
2022-09-04T05:49:45.903Z,12.52
2022-09-04T05:52:03.840Z,12.98
2022-09-04T05:54:44.749Z,11.45
2022-09-04T05:59:26.256Z,11.57
2022-09-04T06:01:55.748Z,10.50
2022-09-04T06:04:06.675Z,10.20
2022-09-04T06:06:20.522Z,10.10
2022-09-04T06:08:54.651Z,10.38
2022-09-04T06:11:06.775Z,9.40
2022-09-04T06:13:23.975Z,9.65
2022-09-04T06:15:53.364Z,9.00
2022-09-04T06:18:21.106Z,9.23
2022-09-04T06:20:43.152Z,9.20
2022-09-04T06:22:55.006Z,8.73
2022-09-04T06:25:25.670Z,7.70
2022-09-04T06:27:27.347Z,7.40
2022-09-04T06:29:35.646Z,6.68
2022-09-04T06:31:43.390Z,7.10
2022-09-04T06:34:20.272Z,6.95
2022-09-04T06:36:35.960Z,6.95
2022-09-04T06:39:16.065Z,6.75
2022-09-04T06:41:36.236Z,6.97
2022-09-04T06:44:02.339Z,5.95
2022-09-04T06:46:27.469Z,7.03
2022-09-04T06:49:06.023Z,6.05
2022-09-04T06:51:27.177Z,5.82
2022-09-04T06:53:31.920Z,5.97
2022-09-04T06:55:49.609Z,5.97
2022-09-04T06:58:19.846Z,4.93
2022-09-04T07:00:21.969Z,4.50
2022-09-04T07:02:54.970Z,5.03
2022-09-04T07:05:06.238Z,5.00
2022-09-04T07:07:26.158Z,5.00
2022-09-04T07:09:42.025Z,4.20
2022-09-04T07:11:57.495Z,3.95
2022-09-04T07:14:17.009Z,4.38
2022-09-04T07:16:36.426Z,6.80
2022-09-04T07:18:56.378Z,4.70
2022-09-04T07:21:19.681Z,3.53
2022-09-04T07:23:49.167Z,3.75
2022-09-04T07:26:35.313Z,3.22
2022-09-04T07:29:07.241Z,2.50
2022-09-04T07:31:38.877Z,2.53
2022-09-04T07:34:08.256Z,2.38
2022-09-04T07:36:37.315Z,2.20
2022-09-04T07:38:52.461Z,1.83
2022-09-04T07:41:02.424Z,2.33
2022-09-04T07:43:35.046Z,2.00
2022-09-04T07:45:48.781Z,1.67
2022-09-04T07:48:41.320Z,1.67
2022-09-04T07:51:21.598Z,1.40
2022-09-04T07:53:31.951Z,1.33
2022-09-04T07:55:40.590Z,1.73
2022-09-04T07:58:02.500Z,1.58
2022-09-04T08:00:05.067Z,1.33
2022-09-04T08:02:06.811Z,1.73
2022-09-04T08:04:44.516Z,1.30
2022-09-04T08:06:56.973Z,1.30
2022-09-04T08:09:04.650Z,1.65
2022-09-04T08:11:15.267Z,1.25
2022-09-04T08:14:00.463Z,1.20
2022-09-04T08:16:19.038Z,1.27
2022-09-04T08:18:39.051Z,1.55
2022-09-04T08:21:02.532Z,1.07
2022-09-04T08:23:36.942Z,1.33
2022-09-04T08:26:12.254Z,1.40
2022-09-04T08:28:57.071Z,1.10
2022-09-04T08:31:26.468Z,1.38
2022-09-04T08:33:28.358Z,1.98
2022-09-04T08:35:52.684Z,1.50
2022-09-04T08:38:12.662Z,1.38
2022-09-04T08:40:26.104Z,1.50
2022-09-04T08:42:46.355Z,1.17
2022-09-04T08:45:15.431Z,1.00
2022-09-04T08:47:32.798Z,1.10
2022-09-04T08:50:04.624Z,1.42
2022-09-04T08:52:24.917Z,1.13
2022-09-04T08:54:59.142Z,1.40
2022-09-04T08:57:12.688Z,1.27
2022-09-04T08:59:17.195Z,0.88
2022-09-04T09:01:34.416Z,1.05
2022-09-04T09:04:06.357Z,0.90
2022-09-04T09:06:26.723Z,1.10
2022-09-04T09:08:56.425Z,1.10
2022-09-04T09:11:15.445Z,1.40
2022-09-04T09:16:24.125Z,0.95
2022-09-04T09:18:40.508Z,1.10
2022-09-04T09:20:54.519Z,0.80
2022-09-04T09:23:18.383Z,0.80
2022-09-04T09:25:25.142Z,0.90
2022-09-04T09:27:29.859Z,0.73
2022-09-04T09:30:02.292Z,1.00
2022-09-04T09:32:41.880Z,1.00
2022-09-04T09:35:01.825Z,0.98
2022-09-04T09:37:12.527Z,0.93
2022-09-04T09:41:24.486Z,1.02
2022-09-04T09:43:46.479Z,1.05
2022-09-04T09:46:12.917Z,0.70
2022-09-04T09:48:41.413Z,1.08
2022-09-04T09:50:52.032Z,1.52
2022-09-04T09:53:47.564Z,1.33
2022-09-04T09:56:14.088Z,1.13
2022-09-04T09:58:45.146Z,0.88
2022-09-04T10:01:08.276Z,0.75
2022-09-04T10:03:39.725Z,1.08
2022-09-04T10:06:20.184Z,0.90
2022-09-04T10:08:55.618Z,1.50
2022-09-04T10:10:57.297Z,1.13
2022-09-04T10:13:27.830Z,1.48
2022-09-04T10:16:04.632Z,1.50
2022-09-04T10:18:32.950Z,0.70
2022-09-04T10:21:13.158Z,1.45
2022-09-04T10:23:20.949Z,1.08
2022-09-04T10:25:55.087Z,1.77
2022-09-04T10:28:34.922Z,0.68
2022-09-04T10:31:13.990Z,1.02
2022-09-04T10:33:32.856Z,1.35
2022-09-04T10:35:44.051Z,1.00
2022-09-04T10:38:07.447Z,1.30
2022-09-04T10:40:43.750Z,1.05
2022-09-04T10:42:56.053Z,1.00
2022-09-04T10:45:00.501Z,1.02
2022-09-04T10:47:14.345Z,0.88
2022-09-04T10:49:34.449Z,1.15
2022-09-04T10:51:59.080Z,0.85
2022-09-04T10:54:30.444Z,1.15
2022-09-04T10:56:59.854Z,1.33
2022-09-04T10:59:21.384Z,1.10
2022-09-04T11:01:34.294Z,0.93
2022-09-04T11:03:58.783Z,1.08
2022-09-04T11:06:38.105Z,0.88
2022-09-04T11:09:00.847Z,1.02
2022-09-04T11:11:14.259Z,0.82
2022-09-04T11:13:31.135Z,0.90
2022-09-04T11:16:04.093Z,1.02
2022-09-04T11:18:26.318Z,0.82
2022-09-04T11:20:45.308Z,0.70
2022-09-04T11:23:24.771Z,0.90
2022-09-04T11:26:25.039Z,1.02
2022-09-04T11:29:03.855Z,0.80
2022-09-04T11:31:38.297Z,1.80
2022-09-04T11:33:48.953Z,1.02
2022-09-04T11:38:10.658Z,1.20
2022-09-04T11:40:32.289Z,0.93
2022-09-04T11:42:56.178Z,1.27
2022-09-04T11:45:23.716Z,0.90
2022-09-04T11:48:03.254Z,1.02
2022-09-04T11:50:23.939Z,1.00
2022-09-04T11:54:45.607Z,1.17
2022-09-04T11:57:12.442Z,1.45
2022-09-04T11:59:55.476Z,1.50
2022-09-04T12:02:18.918Z,1.05
2022-09-04T12:04:40.978Z,1.00
2022-09-04T12:07:17.125Z,1.48
2022-09-04T12:09:38.996Z,1.45
2022-09-04T12:12:11.163Z,1.40
2022-09-04T12:14:53.102Z,2.22
2022-09-04T12:17:25.763Z,0.95
2022-09-04T12:19:52.356Z,1.10
2022-09-04T12:22:15.443Z,1.05
2022-09-04T12:24:41.706Z,1.90
2022-09-04T12:26:59.709Z,1.55
2022-09-04T12:29:20.546Z,1.08
2022-09-04T12:31:32.528Z,0.73
2022-09-04T12:34:06.557Z,1.25
2022-09-04T12:36:38.559Z,1.10
2022-09-04T12:39:31.724Z,1.20
2022-09-04T12:42:01.909Z,0.98
2022-09-04T12:44:25.500Z,1.05
2022-09-04T12:47:00.757Z,1.02
2022-09-04T12:49:23.096Z,1.38
2022-09-04T12:51:44.050Z,1.25
2022-09-04T12:54:24.986Z,1.40
2022-09-04T12:56:37.206Z,1.20
2022-09-04T12:58:49.383Z,1.27
2022-09-04T13:01:08.587Z,1.17
2022-09-04T13:03:29.961Z,1.20
2022-09-04T13:05:52.814Z,1.33
2022-09-04T13:08:26.678Z,1.50
2022-09-04T13:10:41.387Z,1.75
2022-09-04T13:13:05.905Z,1.10
2022-09-04T13:15:19.504Z,1.08
2022-09-04T13:17:44.738Z,0.93
2022-09-04T13:20:13.147Z,1.20
2022-09-04T13:22:53.714Z,1.40
2022-09-04T13:25:27.372Z,4.50
2022-09-04T13:27:58.746Z,5.45
2022-09-04T13:30:30.296Z,92.00
2022-09-04T13:32:50.883Z,3.03
2022-09-04T13:34:58.927Z,1.48
2022-09-04T13:37:29.353Z,1.05
2022-09-04T13:40:09.529Z,1.45
2022-09-04T13:42:39.820Z,1.23
2022-09-04T13:45:02.874Z,1.27
2022-09-04T13:47:32.974Z,1.17
2022-09-04T13:49:44.413Z,1.30
2022-09-04T13:51:53.871Z,1.48
2022-09-04T13:54:05.212Z,1.55
2022-09-04T13:56:16.290Z,1.08
2022-09-04T13:58:27.488Z,0.88
2022-09-04T14:00:45.997Z,1.60
2022-09-04T14:02:55.940Z,1.90
2022-09-04T14:05:23.231Z,1.40
2022-09-04T14:07:29.826Z,1.27
2022-09-04T14:09:42.525Z,1.20
2022-09-04T14:12:14.391Z,1.42
2022-09-04T14:14:41.427Z,1.35
2022-09-04T14:16:44.576Z,1.10
2022-09-04T14:19:00.179Z,0.93
2022-09-04T14:21:17.023Z,1.00
2022-09-04T14:23:47.540Z,1.25
2022-09-04T14:26:04.094Z,1.40
2022-09-04T14:28:32.113Z,2.03
2022-09-04T14:30:50.853Z,1.20
2022-09-04T14:33:28.410Z,1.23
2022-09-04T14:35:46.986Z,0.90
2022-09-04T14:38:27.968Z,1.40
2022-09-04T14:41:25.901Z,1.02
2022-09-04T14:43:49.048Z,1.15
2022-09-04T14:45:51.939Z,1.42
2022-09-04T14:48:06.621Z,1.10
2022-09-04T14:50:23.371Z,1.02
2022-09-04T14:52:47.949Z,1.02
2022-09-04T14:55:02.612Z,1.13
2022-09-04T14:57:17.904Z,1.40
2022-09-04T14:59:31.526Z,0.90
2022-09-04T15:01:39.452Z,1.17
2022-09-04T15:03:49.237Z,0.95
2022-09-04T15:05:58.618Z,0.98
2022-09-04T15:08:03.934Z,0.80
2022-09-04T15:10:27.494Z,1.65
2022-09-04T15:12:39.273Z,0.95
2022-09-04T15:15:08.517Z,0.80
2022-09-04T15:17:26.230Z,0.80
2022-09-04T15:19:41.062Z,0.88
2022-09-04T15:21:57.064Z,0.80
2022-09-04T15:24:24.544Z,1.10
2022-09-04T15:27:06.947Z,1.15
2022-09-04T15:29:27.903Z,1.00
2022-09-04T15:31:41.940Z,0.63
2022-09-04T15:33:47.780Z,1.05
2022-09-04T15:36:21.091Z,1.52
2022-09-04T15:38:28.114Z,1.15
2022-09-04T15:41:05.693Z,0.60
2022-09-04T15:43:32.309Z,1.00
2022-09-04T15:45:52.084Z,1.35
2022-09-04T15:48:16.146Z,1.60
2022-09-04T15:50:22.897Z,1.00
2022-09-04T15:52:51.181Z,1.20
2022-09-04T15:55:02.574Z,0.80
2022-09-04T15:57:10.619Z,1.17
2022-09-04T15:59:27.832Z,0.75
2022-09-04T16:01:51.423Z,0.88
2022-09-04T16:04:23.523Z,0.95
2022-09-04T16:06:32.646Z,0.90
2022-09-04T16:08:50.373Z,1.75
2022-09-04T16:11:33.968Z,0.73
2022-09-04T16:13:45.905Z,0.73
2022-09-04T16:15:48.462Z,1.00
2022-09-04T16:17:55.878Z,0.63
2022-09-04T16:20:01.132Z,1.25
2022-09-04T16:22:02.910Z,0.93
2022-09-04T16:24:11.927Z,2.13
2022-09-04T16:26:31.282Z,0.85
2022-09-04T16:28:39.469Z,1.27
2022-09-04T16:30:58.279Z,0.90
2022-09-04T16:33:01.692Z,0.82
2022-09-04T16:35:15.232Z,0.73
2022-09-04T16:37:33.440Z,1.02
2022-09-04T16:39:56.299Z,0.70
2022-09-04T16:42:25.715Z,1.05
2022-09-04T16:44:38.824Z,0.82
2022-09-04T16:47:05.696Z,1.05
2022-09-04T16:49:20.371Z,0.90
2022-09-04T16:51:40.189Z,1.10
2022-09-04T16:54:04.322Z,0.80
2022-09-04T16:56:21.454Z,0.73
2022-09-04T16:58:37.644Z,0.95
2022-09-04T17:01:14.300Z,1.13
2022-09-04T17:03:25.410Z,1.20
2022-09-04T17:05:35.346Z,1.10
2022-09-04T17:07:44.208Z,1.25
2022-09-04T17:09:57.842Z,1.05
2022-09-04T17:12:24.282Z,1.20
2022-09-04T17:14:46.180Z,1.58
2022-09-04T17:17:00.542Z,0.90
2022-09-04T17:19:03.492Z,1.23
2022-09-04T17:28:52.149Z,1.88
2022-09-04T17:29:03.907Z,1.33
2022-09-04T17:29:17.545Z,1.08
2022-09-04T17:29:46.282Z,0.93
2022-09-04T17:31:48.805Z,1.42
2022-09-04T17:40:33.087Z,1.20
2022-09-04T17:40:40.546Z,1.05
2022-09-04T17:40:42.578Z,1.02
2022-09-04T17:42:30.168Z,0.98
2022-09-04T17:44:46.878Z,1.00
2022-09-04T17:47:04.728Z,0.98
2022-09-04T17:49:34.202Z,1.33
2022-09-04T17:51:36.867Z,1.20
2022-09-04T17:53:48.758Z,1.08
2022-09-04T17:55:56.510Z,1.20
2022-09-04T17:58:10.833Z,0.93
2022-09-04T18:00:26.079Z,0.98
2022-09-04T18:02:42.727Z,1.48
2022-09-04T18:05:29.273Z,1.15
2022-09-04T18:08:09.870Z,1.75
2022-09-04T18:10:37.496Z,1.02
2022-09-04T18:13:36.931Z,1.75
2022-09-04T18:15:43.215Z,1.13
2022-09-04T18:17:54.746Z,0.90
2022-09-04T18:20:07.951Z,1.25
2022-09-04T18:23:15.596Z,1.83
2022-09-04T18:25:56.022Z,1.17
2022-09-04T18:28:09.642Z,1.13
2022-09-04T18:37:05.561Z,0.80
2022-09-04T18:37:17.023Z,1.33
2022-09-04T18:37:20.788Z,1.67
2022-09-04T18:38:14.796Z,1.60
2022-09-04T18:41:53.018Z,1.45
2022-09-04T18:50:20.428Z,1.67
2022-09-04T18:50:34.465Z,1.30
2022-09-04T18:50:46.757Z,1.65
2022-09-04T18:51:01.949Z,2.20
2022-09-04T18:53:19.917Z,1.58
2022-09-04T18:55:57.881Z,1.00
2022-09-04T18:58:08.546Z,1.45
2022-09-04T19:02:24.729Z,1.60
2022-09-04T19:05:14.527Z,1.50
2022-09-04T19:07:31.830Z,1.50
2022-09-04T19:10:06.705Z,1.70
2022-09-04T19:12:13.739Z,1.50
2022-09-04T19:14:24.248Z,1.50
2022-09-04T19:16:34.612Z,1.60
2022-09-04T19:18:43.851Z,1.65
2022-09-04T19:20:54.410Z,1.27
2022-09-04T19:23:15.137Z,1.58
2022-09-04T19:25:29.296Z,4.72
2022-09-04T19:27:38.297Z,3.80
2022-09-04T19:30:18.795Z,2.08
2022-09-04T19:32:45.724Z,1.10
2022-09-04T19:35:15.531Z,1.35
2022-09-04T19:39:04.828Z,1.20
2022-09-04T19:45:56.852Z,1.63
2022-09-04T19:46:16.781Z,1.70
2022-09-04T19:46:18.624Z,1.85
2022-09-04T19:48:07.793Z,1.20
2022-09-04T19:53:18.472Z,1.80
2022-09-04T19:53:23.204Z,1.30
2022-09-04T19:55:25.174Z,1.50
2022-09-04T19:57:42.549Z,1.13
2022-09-04T20:00:43.113Z,1.40
2022-09-04T20:03:13.507Z,1.15
2022-09-04T20:05:33.242Z,1.38
2022-09-04T20:07:45.042Z,1.50
2022-09-04T20:09:59.733Z,1.45
2022-09-04T20:12:12.058Z,1.58
2022-09-04T20:14:30.773Z,1.05
2022-09-04T20:16:48.255Z,1.58
2022-09-04T20:19:18.132Z,1.45
2022-09-04T20:21:59.939Z,1.30
2022-09-04T20:24:11.382Z,1.77
2022-09-04T20:26:28.822Z,1.50
2022-09-04T20:28:48.390Z,1.50
2022-09-04T20:31:35.202Z,1.83
2022-09-04T20:33:40.967Z,1.60
2022-09-04T20:35:52.798Z,1.98
2022-09-04T20:37:59.956Z,1.33
2022-09-04T20:40:19.281Z,1.80
2022-09-04T20:43:04.363Z,1.42
2022-09-04T20:47:05.018Z,2.05
2022-09-04T20:52:43.906Z,1.48
2022-09-04T20:52:58.059Z,1.45
2022-09-04T20:53:17.974Z,1.40
2022-09-04T20:55:52.454Z,1.17
2022-09-04T21:03:05.537Z,1.30
2022-09-04T21:03:22.836Z,1.52
2022-09-04T21:03:28.899Z,1.50
2022-09-04T21:06:10.678Z,1.23
2022-09-04T21:08:35.351Z,1.10
2022-09-04T21:10:50.181Z,1.58
2022-09-04T21:13:14.510Z,1.17
2022-09-04T21:15:48.374Z,1.13
2022-09-04T21:18:18.058Z,1.50
2022-09-04T21:20:46.681Z,1.67
2022-09-04T21:23:39.058Z,1.08
2022-09-04T21:26:22.527Z,1.55
2022-09-04T21:29:09.118Z,1.63
2022-09-04T21:31:49.954Z,1.42
2022-09-04T21:34:22.158Z,1.30
2022-09-04T21:36:38.214Z,1.40
2022-09-04T21:38:54.060Z,1.73
2022-09-04T21:41:29.406Z,1.50
2022-09-04T21:43:49.634Z,1.80
2022-09-04T21:46:04.621Z,1.65
2022-09-04T21:48:17.828Z,1.30
2022-09-04T21:50:44.805Z,1.42
2022-09-04T21:53:15.011Z,1.45
2022-09-04T22:00:54.813Z,1.40
2022-09-04T22:02:30.336Z,1.50
2022-09-04T22:02:38.829Z,1.98
2022-09-04T22:03:15.266Z,1.70
2022-09-04T22:05:21.765Z,1.30
2022-09-04T22:12:13.081Z,1.70
2022-09-04T22:13:28.797Z,2.17
2022-09-04T22:13:33.775Z,1.98
2022-09-04T22:15:07.431Z,1.58
2022-09-04T22:17:30.032Z,1.02
2022-09-04T22:19:52.914Z,1.08
2022-09-04T22:22:03.906Z,1.50
2022-09-04T22:24:41.510Z,1.38
2022-09-04T22:26:43.151Z,1.67
2022-09-04T22:29:08.269Z,1.38
2022-09-04T22:31:40.451Z,1.27
2022-09-04T22:34:15.369Z,1.27
2022-09-04T22:36:28.321Z,1.23
2022-09-04T22:38:32.683Z,1.30
2022-09-04T22:40:56.429Z,1.13
2022-09-04T22:43:11.656Z,1.15
2022-09-04T22:45:53.328Z,1.40
2022-09-04T22:48:40.921Z,1.52
2022-09-04T22:50:50.167Z,1.20
2022-09-04T22:53:22.745Z,1.93
2022-09-04T22:56:22.798Z,1.63
2022-09-04T22:58:38.300Z,1.20
2022-09-04T23:01:36.761Z,1.33
2022-09-04T23:04:23.970Z,1.02
2022-09-04T23:11:59.936Z,1.10
2022-09-04T23:13:50.644Z,1.80
2022-09-04T23:13:56.345Z,1.20
2022-09-04T23:14:55.110Z,1.20
2022-09-04T23:17:28.991Z,1.25
2022-09-04T23:23:05.126Z,1.10
2022-09-04T23:26:44.303Z,0.90
2022-09-04T23:26:50.900Z,1.17
2022-09-04T23:27:57.732Z,1.15
2022-09-04T23:30:12.660Z,1.00
2022-09-04T23:32:31.830Z,1.40
2022-09-04T23:35:13.915Z,0.90
2022-09-04T23:38:00.485Z,1.00
2022-09-04T23:40:29.075Z,1.25
2022-09-04T23:42:50.772Z,0.85
2022-09-04T23:45:29.953Z,1.00
2022-09-04T23:47:58.812Z,1.00
2022-09-04T23:50:19.182Z,1.30
2022-09-04T23:52:34.044Z,1.02
2022-09-04T23:55:03.456Z,1.00
2022-09-04T23:57:26.909Z,0.90
